createdAt,value
2018-06-09T00:01:07.867Z,95306.99
2018-06-09T00:03:37.497Z,95299.76
2018-06-09T00:06:07.049Z,95298.67
2018-06-09T00:08:36.569Z,95292.05
2018-06-09T00:11:06.223Z,95293.14
2018-06-09T00:13:35.853Z,95282.64
2018-06-09T00:16:05.453Z,95282.14
2018-06-09T00:18:35.055Z,95277.53
2018-06-09T00:21:04.592Z,95277.55
2018-06-09T00:23:34.150Z,95275.41
2018-06-09T00:26:03.799Z,95270.56
2018-06-09T00:28:33.474Z,95273.50
2018-06-09T00:31:02.956Z,95267.66
2018-06-09T00:33:32.472Z,95268.71
2018-06-09T00:36:02.187Z,95267.54
2018-06-09T00:38:31.929Z,95272.08
2018-06-09T00:41:01.577Z,95261.17
2018-06-09T00:43:31.190Z,95267.72
2018-06-09T00:46:01.330Z,95264.10
2018-06-09T00:48:30.928Z,95259.19
2018-06-09T00:51:00.497Z,95253.78
2018-06-09T00:53:30.183Z,95245.39
2018-06-09T00:56:10.540Z,95244.52
2018-06-09T00:58:40.275Z,95232.41
2018-06-09T01:01:09.835Z,95234.22
2018-06-09T01:03:39.480Z,95224.92
2018-06-09T01:06:09.134Z,95229.92
2018-06-09T01:08:38.790Z,95226.43
2018-06-09T01:11:08.346Z,95223.27
2018-06-09T01:13:37.995Z,95220.68
2018-06-09T01:16:07.591Z,95219.34
2018-06-09T01:18:37.228Z,95218.78
2018-06-09T01:21:06.828Z,95220.79
2018-06-09T01:23:36.419Z,95220.23
2018-06-09T01:26:05.969Z,95217.78
2018-06-09T01:28:35.604Z,95217.31
2018-06-09T01:31:05.355Z,95214.16
2018-06-09T01:33:34.862Z,95211.58
2018-06-09T01:36:04.603Z,95214.98
2018-06-09T01:38:34.327Z,95217.20
2018-06-09T01:41:03.962Z,95217.77
2018-06-09T01:43:33.662Z,95214.06
2018-06-09T01:46:03.720Z,95207.00
2018-06-09T01:48:33.304Z,95205.55
2018-06-09T01:51:02.905Z,95203.53
2018-06-09T01:53:32.482Z,95203.89
2018-06-09T01:56:02.141Z,95200.08
2018-06-09T01:58:31.786Z,95192.78
2018-06-09T02:01:01.457Z,95195.91
2018-06-09T02:03:30.998Z,95196.27
2018-06-09T02:06:00.689Z,95190.67
2018-06-09T02:08:30.268Z,95190.56
2018-06-09T02:10:59.939Z,95184.45
2018-06-09T02:13:29.657Z,95182.94
2018-06-09T02:15:59.326Z,95176.64
2018-06-09T02:18:28.959Z,95180.88
2018-06-09T02:20:58.418Z,95174.73
2018-06-09T02:23:27.959Z,95177.20
2018-06-09T02:25:57.584Z,95176.52
2018-06-09T02:28:27.275Z,95174.81
2018-06-09T02:30:56.760Z,95173.42
2018-06-09T02:33:26.364Z,95168.55
2018-06-09T02:35:55.948Z,95177.87
2018-06-09T02:38:25.568Z,95172.03
2018-06-09T02:40:55.172Z,95175.90
2018-06-09T02:43:24.800Z,95182.63
2018-06-09T02:45:54.376Z,95187.47
2018-06-09T02:48:24.233Z,95185.62
2018-06-09T02:50:53.825Z,95178.26
2018-06-09T02:53:23.540Z,95173.75
2018-06-09T02:55:53.201Z,95172.41
2018-06-09T02:58:22.814Z,95177.69
2018-06-09T03:00:52.541Z,95174.23
2018-06-09T03:03:22.343Z,95177.72
2018-06-09T03:05:51.879Z,95171.94
2018-06-09T03:08:21.519Z,95178.71
2018-06-09T03:10:51.352Z,95176.69
2018-06-09T03:13:20.887Z,95182.20
2018-06-09T03:15:50.495Z,95182.06
2018-06-09T03:18:20.071Z,95180.48
2018-06-09T03:20:49.660Z,95175.87
2018-06-09T03:23:19.283Z,95177.23
2018-06-09T03:25:48.838Z,95175.32
2018-06-09T03:28:18.556Z,95176.90
2018-06-09T03:30:48.054Z,95170.25
2018-06-09T03:33:17.611Z,95165.41
2018-06-09T03:35:47.248Z,95162.31
2018-06-09T03:38:16.797Z,95162.55
2018-06-09T03:40:46.397Z,95161.72
2018-06-09T03:43:16.093Z,95159.03
2018-06-09T03:45:45.660Z,95157.33
2018-06-09T03:48:15.190Z,95150.12
2018-06-09T03:50:44.993Z,95149.16
2018-06-09T03:53:14.581Z,95148.36
2018-06-09T03:55:44.161Z,95142.19
2018-06-09T03:58:13.739Z,95140.39
2018-06-09T04:00:43.230Z,95145.23
2018-06-09T04:03:12.808Z,95137.78
2018-06-09T04:05:42.522Z,95138.37
2018-06-09T04:08:12.228Z,95143.33
2018-06-09T04:10:41.866Z,95143.22
2018-06-09T04:13:11.516Z,95136.48
2018-06-09T04:15:41.075Z,95143.20
2018-06-09T04:18:10.659Z,95142.25
2018-06-09T04:20:40.237Z,95141.23
2018-06-09T04:23:09.825Z,95136.03
2018-06-09T04:25:39.384Z,95143.12
2018-06-09T04:28:09.082Z,95136.23
2018-06-09T04:30:38.624Z,95143.23
2018-06-09T04:33:08.175Z,95141.62
2018-06-09T04:35:37.676Z,95140.06
2018-06-09T04:38:07.364Z,95140.67
2018-06-09T04:40:36.998Z,95137.42
2018-06-09T04:43:06.924Z,95133.69
2018-06-09T04:45:36.343Z,95137.73
2018-06-09T04:48:05.954Z,95135.47
2018-06-09T04:50:35.576Z,95139.05
2018-06-09T04:53:05.704Z,95138.75
2018-06-09T04:55:35.168Z,95140.07
2018-06-09T04:58:04.903Z,95142.34
2018-06-09T05:00:34.580Z,95136.70
2018-06-09T05:03:04.222Z,95133.68
2018-06-09T05:05:33.841Z,95133.34
2018-06-09T05:08:03.422Z,95137.16
2018-06-09T05:10:33.084Z,95123.90
2018-06-09T05:13:03.210Z,95126.94
2018-06-09T05:15:32.949Z,95125.34
2018-06-09T05:18:02.489Z,95125.44
2018-06-09T05:20:32.028Z,95125.90
2018-06-09T05:23:01.516Z,95133.44
2018-06-09T05:25:31.111Z,95135.53
2018-06-09T05:28:00.803Z,95130.78
2018-06-09T05:30:30.429Z,95127.84
2018-06-09T05:33:00.185Z,95128.03
2018-06-09T05:35:29.757Z,95126.88
2018-06-09T05:37:59.450Z,95125.27
2018-06-09T05:40:28.872Z,95124.41
2018-06-09T05:42:58.454Z,95130.37
2018-06-09T05:45:27.995Z,95132.94
2018-06-09T05:47:57.472Z,95128.80
2018-06-09T05:50:26.895Z,95132.08
2018-06-09T05:52:56.544Z,95133.39
2018-06-09T05:55:26.358Z,95122.02
2018-06-09T05:57:56.084Z,95122.73
2018-06-09T06:00:25.817Z,95124.06
2018-06-09T06:02:55.358Z,95118.65
2018-06-09T06:05:25.160Z,95133.30
2018-06-09T06:07:54.878Z,95114.59
2018-06-09T06:10:24.641Z,95122.76
2018-06-09T06:12:54.524Z,95114.44
2018-06-09T06:15:24.261Z,95114.78
2018-06-09T06:17:54.039Z,95109.11
2018-06-09T06:20:23.832Z,95106.42
2018-06-09T06:22:53.500Z,95106.89
2018-06-09T06:25:23.220Z,95098.45
2018-06-09T06:27:52.940Z,95096.80
2018-06-09T06:30:22.593Z,95091.97
2018-06-09T06:32:52.214Z,95090.27
2018-06-09T06:35:21.784Z,95087.08
2018-06-09T06:37:51.309Z,95089.91
2018-06-09T06:40:20.950Z,95085.35
2018-06-09T06:42:50.635Z,95078.51
2018-06-09T06:45:20.333Z,95077.81
2018-06-09T06:47:50.033Z,95079.01
2018-06-09T06:50:19.801Z,95070.20
2018-06-09T06:52:49.431Z,95064.89
2018-06-09T06:55:19.178Z,95065.64
2018-06-09T06:57:49.361Z,95056.71
2018-06-09T07:00:18.911Z,95053.59
2018-06-09T07:02:48.344Z,95061.31
2018-06-09T07:05:17.901Z,95059.45
2018-06-09T07:07:47.532Z,95050.19
2018-06-09T07:10:17.306Z,95044.52
2018-06-09T07:12:46.912Z,95045.38
2018-06-09T07:15:16.528Z,95048.86
2018-06-09T07:17:45.962Z,95044.39
2018-06-09T07:20:15.562Z,95035.02
2018-06-09T07:22:45.191Z,95031.17
2018-06-09T07:25:14.724Z,95027.78
2018-06-09T07:27:44.240Z,95027.63
2018-06-09T07:30:13.700Z,95028.38
2018-06-09T07:32:43.225Z,95026.63
2018-06-09T07:35:12.848Z,95025.47
2018-06-09T07:37:42.415Z,95022.05
2018-06-09T07:40:11.959Z,95017.30
2018-06-09T07:42:41.531Z,95022.42
2018-06-09T07:45:10.995Z,95019.66
2018-06-09T07:47:40.590Z,95021.11
2018-06-09T07:50:10.200Z,95023.83
2018-06-09T07:52:39.737Z,95016.88
2018-06-09T07:55:09.403Z,95011.38
2018-06-09T07:57:39.110Z,95006.91
2018-06-09T08:00:09.054Z,95001.26
2018-06-09T08:02:38.634Z,94998.09
2018-06-09T08:05:08.130Z,94997.91
2018-06-09T08:07:37.615Z,94989.88
2018-06-09T08:10:07.180Z,94987.47
2018-06-09T08:12:36.807Z,94987.55
2018-06-09T08:15:06.375Z,94989.30
2018-06-09T08:17:35.878Z,94986.05
2018-06-09T08:20:05.579Z,94979.20
2018-06-09T08:22:35.224Z,94978.11
2018-06-09T08:25:05.011Z,94975.33
2018-06-09T08:27:50.400Z,94965.92
2018-06-09T08:30:20.024Z,94956.22
2018-06-09T08:32:49.453Z,94951.99
2018-06-09T08:35:19.540Z,94947.31
2018-06-09T08:37:49.172Z,94950.47
2018-06-09T08:40:18.836Z,94942.73
2018-06-09T08:42:48.408Z,94943.36
2018-06-09T08:45:18.060Z,94932.52
2018-06-09T08:47:47.502Z,94930.97
2018-06-09T08:50:17.015Z,94926.78
2018-06-09T08:52:46.691Z,94925.23
2018-06-09T08:55:16.207Z,94929.23
2018-06-09T08:57:46.396Z,94921.42
2018-06-09T09:00:16.633Z,94918.70
2018-06-09T09:02:46.294Z,94915.98
2018-06-09T09:05:15.817Z,94918.71
2018-06-09T09:07:45.629Z,94912.83
2018-06-09T09:10:15.850Z,94910.34
2018-06-09T09:12:45.891Z,94907.11
2018-06-09T09:15:15.510Z,94897.28
2018-06-09T09:17:45.286Z,94893.84
2018-06-09T09:20:15.736Z,94898.38
2018-06-09T09:22:46.168Z,94892.14
2018-06-09T09:25:16.454Z,94898.22
2018-06-09T09:27:46.679Z,94893.16
2018-06-09T09:30:17.074Z,94892.20
2018-06-09T09:32:47.464Z,94662.52
2018-06-09T09:35:18.292Z,94885.17
2018-06-09T09:37:48.826Z,94862.44
2018-06-09T09:40:18.910Z,94872.54
2018-06-09T09:42:49.279Z,94872.30
2018-06-09T09:45:19.410Z,94868.67
2018-06-09T09:47:49.303Z,94862.22
2018-06-09T09:50:19.384Z,94856.84
2018-06-09T09:52:49.686Z,94848.98
2018-06-09T09:55:20.064Z,94845.78
2018-06-09T09:58:03.375Z,94847.71
2018-06-09T10:00:40.632Z,94841.86
2018-06-09T10:03:10.864Z,94842.97
2018-06-09T10:05:42.113Z,94844.28
2018-06-09T10:08:12.140Z,94848.08
2018-06-09T10:10:42.415Z,94842.97
2018-06-09T10:13:12.591Z,94844.38
2018-06-09T10:15:43.280Z,94835.73
2018-06-09T10:18:13.744Z,94841.75
2018-06-09T10:20:44.274Z,94842.94
2018-06-09T10:23:14.891Z,94828.34
2018-06-09T10:25:44.999Z,94827.70
2018-06-09T10:28:15.087Z,94821.62
2018-06-09T10:30:45.226Z,94819.91
2018-06-09T10:33:15.578Z,94816.39
2018-06-09T10:35:46.485Z,94822.73
2018-06-09T10:38:16.898Z,94813.41
2018-06-09T10:40:47.476Z,94805.59
2018-06-09T10:43:17.907Z,94808.73
2018-06-09T10:45:48.944Z,94797.83
2018-06-09T10:48:19.088Z,94780.41
2018-06-09T10:50:49.431Z,94784.55
2018-06-09T10:53:19.786Z,94764.23
2018-06-09T10:55:50.664Z,94775.69
2018-06-09T10:58:21.159Z,94762.98
2018-06-09T11:00:51.387Z,94767.42
2018-06-09T11:03:21.662Z,94763.42
2018-06-09T11:05:52.131Z,94758.20
2018-06-09T11:08:22.268Z,94753.56
2018-06-09T11:10:52.707Z,94750.89
2018-06-09T11:13:22.962Z,94750.27
2018-06-09T11:15:53.213Z,94736.33
2018-06-09T11:18:23.185Z,94743.81
2018-06-09T11:20:53.383Z,94739.15
2018-06-09T11:23:23.337Z,94747.98
2018-06-09T11:25:54.717Z,94751.10
2018-06-09T11:28:24.743Z,94754.84
2018-06-09T11:30:55.149Z,94746.51
2018-06-09T11:33:24.730Z,94749.09
2018-06-09T11:35:54.487Z,94748.77
2018-06-09T11:38:24.153Z,94744.45
2018-06-09T11:40:53.691Z,94740.13
2018-06-09T11:43:23.287Z,94747.63
2018-06-09T11:45:52.923Z,94736.86
2018-06-09T11:48:22.419Z,94739.17
2018-06-09T11:50:51.847Z,94741.63
2018-06-09T11:53:21.449Z,94734.23
2018-06-09T11:55:50.907Z,94732.97
2018-06-09T11:58:20.484Z,94719.84
2018-06-09T12:00:50.074Z,94728.09
2018-06-09T12:03:20.147Z,94727.11
2018-06-09T12:05:50.435Z,94724.87
2018-06-09T12:08:20.824Z,94729.90
2018-06-09T12:10:51.220Z,94725.78
2018-06-09T12:13:21.438Z,94717.36
2018-06-09T12:15:52.494Z,94722.74
2018-06-09T12:18:22.852Z,94718.47
2018-06-09T12:20:52.999Z,94712.28
2018-06-09T12:23:23.331Z,94706.88
2018-06-09T12:25:54.121Z,94690.88
2018-06-09T12:28:24.409Z,94691.34
2018-06-09T12:30:54.765Z,94695.51
2018-06-09T12:33:24.767Z,94689.78
2018-06-09T12:35:54.820Z,94700.41
2018-06-09T12:38:24.355Z,94682.60
2018-06-09T12:40:53.882Z,94670.38
2018-06-09T12:43:23.499Z,94664.15
2018-06-09T12:45:53.100Z,94657.09
2018-06-09T12:48:22.628Z,94657.58
2018-06-09T12:50:52.208Z,94657.84
2018-06-09T12:53:21.711Z,94644.17
2018-06-09T12:55:51.216Z,94652.93
2018-06-09T12:58:20.865Z,94640.77
2018-06-09T13:00:50.425Z,94633.89
2018-06-09T13:03:19.856Z,94629.20
2018-06-09T13:05:49.660Z,94622.08
2018-06-09T13:08:19.170Z,94625.33
2018-06-09T13:10:48.807Z,94619.41
2018-06-09T13:13:19.407Z,94617.44
2018-06-09T13:15:49.589Z,94621.46
2018-06-09T13:18:19.746Z,94414.67
2018-06-09T13:20:49.120Z,94604.72
2018-06-09T13:23:33.227Z,94611.83
2018-06-09T13:26:03.756Z,94599.73
2018-06-09T13:28:33.410Z,94606.52
2018-06-09T13:31:02.822Z,94598.25
2018-06-09T13:33:32.412Z,94592.23
2018-06-09T13:36:01.963Z,94586.84
2018-06-09T13:38:31.574Z,94585.12
2018-06-09T13:41:01.034Z,94579.03
2018-06-09T13:43:30.600Z,94578.69
2018-06-09T13:46:00.132Z,94572.98
2018-06-09T13:48:29.723Z,94572.09
2018-06-09T13:50:59.365Z,94566.36
2018-06-09T13:53:28.816Z,94575.80
2018-06-09T13:55:58.509Z,94571.94
2018-06-09T13:58:28.071Z,94564.70
2018-06-09T14:00:57.624Z,94559.20
2018-06-09T14:03:27.163Z,94571.86
2018-06-09T14:05:57.171Z,94563.80
2018-06-09T14:08:26.721Z,94569.40
2018-06-09T14:10:56.421Z,94569.77
2018-06-09T14:13:26.008Z,94569.69
2018-06-09T14:15:55.363Z,94564.89
2018-06-09T14:18:24.893Z,94562.15
2018-06-09T14:20:54.418Z,94561.10
2018-06-09T14:23:23.865Z,94572.45
2018-06-09T14:25:53.309Z,94562.02
2018-06-09T14:28:22.857Z,94561.61
2018-06-09T14:30:52.402Z,94558.77
2018-06-09T14:33:22.021Z,94555.48
2018-06-09T14:35:51.594Z,94550.27
2018-06-09T14:38:21.124Z,94554.66
2018-06-09T14:40:50.574Z,94550.89
2018-06-09T14:43:20.252Z,94554.36
2018-06-09T14:45:49.751Z,94549.07
2018-06-09T14:48:19.354Z,94556.95
2018-06-09T14:50:48.797Z,94557.98
2018-06-09T14:53:18.335Z,94550.47
2018-06-09T14:55:47.787Z,94546.20
2018-06-09T14:58:17.323Z,94554.09
2018-06-09T15:00:46.988Z,94549.68
2018-06-09T15:03:16.552Z,94541.26
2018-06-09T15:05:46.160Z,94542.84
2018-06-09T15:08:15.524Z,94535.00
2018-06-09T15:10:45.116Z,94531.28
2018-06-09T15:13:14.688Z,94534.31
2018-06-09T15:15:44.347Z,94526.48
2018-06-09T15:18:13.886Z,94528.61
2018-06-09T15:20:43.395Z,94516.91
2018-06-09T15:23:12.938Z,94515.27
2018-06-09T15:25:42.599Z,94518.72
2018-06-09T15:28:12.201Z,94513.58
2018-06-09T15:30:41.946Z,94515.02
2018-06-09T15:33:11.568Z,94516.94
2018-06-09T15:35:41.193Z,94506.11
2018-06-09T15:38:10.731Z,94509.02
2018-06-09T15:40:40.238Z,94514.34
2018-06-09T15:43:09.808Z,94519.22
2018-06-09T15:45:39.264Z,94521.22
2018-06-09T15:48:08.911Z,94523.66
2018-06-09T15:50:38.482Z,94521.64
2018-06-09T15:53:07.977Z,94525.69
2018-06-09T15:55:37.641Z,94530.95
2018-06-09T15:58:07.189Z,94532.31
2018-06-09T16:00:36.635Z,94525.75
2018-06-09T16:03:06.191Z,94522.92
2018-06-09T16:05:35.662Z,94523.05
2018-06-09T16:08:05.294Z,94529.60
2018-06-09T16:10:34.847Z,94530.48
2018-06-09T16:13:04.383Z,94527.80
2018-06-09T16:15:33.937Z,94534.83
2018-06-09T16:18:03.477Z,94544.84
2018-06-09T16:20:33.003Z,94544.33
2018-06-09T16:23:02.547Z,94551.80
2018-06-09T16:25:32.149Z,94548.52
2018-06-09T16:28:01.751Z,94561.34
2018-06-09T16:30:31.344Z,94559.80
2018-06-09T16:33:00.862Z,94565.22
2018-06-09T16:35:30.406Z,94563.58
2018-06-09T16:38:00.071Z,94562.66
2018-06-09T16:40:29.683Z,94569.64
2018-06-09T16:42:59.219Z,94565.28
2018-06-09T16:45:28.717Z,94564.72
2018-06-09T16:47:58.226Z,94559.98
2018-06-09T16:50:27.755Z,94551.81
2018-06-09T16:52:57.221Z,94557.88
2018-06-09T16:55:26.803Z,94553.38
2018-06-09T16:57:56.370Z,94551.15
2018-06-09T17:00:25.966Z,94554.08
2018-06-09T17:02:55.575Z,94547.30
2018-06-09T17:05:25.357Z,94543.61
2018-06-09T17:07:54.733Z,94539.91
2018-06-09T17:10:24.333Z,94545.75
2018-06-09T17:12:54.324Z,94549.05
2018-06-09T17:15:23.859Z,94550.80
2018-06-09T17:18:09.342Z,94547.70
2018-06-09T17:20:44.821Z,94546.16
2018-06-09T17:23:14.536Z,94547.70
2018-06-09T17:25:44.966Z,94543.81
2018-06-09T17:28:14.494Z,94551.77
2018-06-09T17:36:47.634Z,94540.72
2018-06-09T17:39:17.254Z,94523.62
2018-06-09T17:41:46.913Z,94527.11
2018-06-09T17:44:16.454Z,94526.27
2018-06-09T17:46:46.012Z,94529.73
2018-06-09T17:49:15.555Z,94525.75
2018-06-09T17:51:45.152Z,94532.36
2018-06-09T17:54:14.551Z,94529.81
2018-06-09T17:56:44.176Z,94537.56
2018-06-09T17:59:13.692Z,94531.00
2018-06-09T18:01:43.151Z,94536.83
2018-06-09T18:04:12.749Z,94543.63
2018-06-09T18:06:42.394Z,94552.94
2018-06-09T18:09:11.800Z,94556.92
2018-06-09T18:11:41.584Z,94560.11
2018-06-09T18:14:11.519Z,94564.52
2018-06-09T18:16:41.071Z,94566.70
2018-06-09T18:19:10.790Z,94569.38
2018-06-09T18:21:40.454Z,94565.13
2018-06-09T18:24:10.490Z,94561.36
2018-06-09T18:26:40.157Z,94570.94
2018-06-09T18:29:09.755Z,94561.91
2018-06-09T18:31:39.314Z,94576.70
2018-06-09T18:34:09.284Z,94584.76
2018-06-09T18:36:38.897Z,94589.17
2018-06-09T18:39:10.372Z,94595.17
2018-06-09T18:41:40.031Z,94596.89
2018-06-09T18:44:09.612Z,94610.09
2018-06-09T18:46:39.287Z,94598.52
2018-06-09T18:49:08.832Z,94600.78
2018-06-09T18:51:38.438Z,94606.29
2018-06-09T18:54:08.046Z,94606.86
2018-06-09T18:56:37.743Z,94610.31
2018-06-09T18:59:07.375Z,94604.91
2018-06-09T19:01:36.918Z,94607.66
2018-06-09T19:04:06.765Z,94604.85
2018-06-09T19:06:36.340Z,94609.41
2018-06-09T19:09:08.747Z,94611.58
2018-06-09T19:11:38.364Z,94615.64
2018-06-09T19:14:07.986Z,94613.95
2018-06-09T19:16:38.693Z,94609.73
2018-06-09T19:19:08.389Z,94612.70
2018-06-09T19:21:37.994Z,94608.12
2018-06-09T19:24:07.504Z,94614.91
2018-06-09T19:26:37.100Z,94608.61
2018-06-09T19:29:06.629Z,94608.98
2018-06-09T19:31:36.270Z,94615.28
2018-06-09T19:34:06.058Z,94614.89
2018-06-09T19:36:35.706Z,94616.44
2018-06-09T19:39:07.808Z,94615.44
2018-06-09T19:41:37.900Z,94614.59
2018-06-09T19:44:07.628Z,94623.16
2018-06-09T19:46:37.932Z,94628.19
2018-06-09T19:49:07.631Z,94629.38
2018-06-09T19:51:37.357Z,94629.18
2018-06-09T19:54:07.064Z,94628.56
2018-06-09T19:56:37.702Z,94634.09
2018-06-09T19:59:07.391Z,94631.11
2018-06-09T20:01:37.024Z,94636.17
2018-06-09T20:04:06.639Z,94626.55
2018-06-09T20:06:36.240Z,94625.80
2018-06-09T20:09:09.102Z,94625.24
2018-06-09T20:11:38.755Z,94630.67
2018-06-09T20:14:08.795Z,94625.88
2018-06-09T20:16:39.293Z,94633.44
2018-06-09T20:19:09.265Z,94631.92
2018-06-09T20:21:38.955Z,94637.30
2018-06-09T20:24:08.560Z,94633.75
2018-06-09T20:26:38.180Z,94627.36
2018-06-09T20:29:07.706Z,94624.86
2018-06-09T20:31:37.290Z,94630.13
2018-06-09T20:34:06.755Z,94625.38
2018-06-09T20:36:36.288Z,94628.60
2018-06-09T20:39:06.946Z,94630.31
2018-06-09T20:41:36.771Z,94626.76
2018-06-09T20:44:06.347Z,94629.72
2018-06-09T20:46:35.958Z,94628.97
2018-06-09T20:49:05.908Z,94627.77
2018-06-09T20:51:35.445Z,94637.17
2018-06-09T20:54:05.130Z,94635.94
2018-06-09T20:56:34.683Z,94636.20
2018-06-09T20:59:04.335Z,94640.57
2018-06-09T21:01:34.054Z,94635.72
2018-06-09T21:04:03.672Z,94637.71
2018-06-09T21:06:33.364Z,94633.63
2018-06-09T21:09:03.025Z,94630.77
2018-06-09T21:11:32.638Z,94634.19
2018-06-09T21:14:02.309Z,94635.01
2018-06-09T21:16:31.928Z,94635.23
2018-06-09T21:19:01.486Z,94639.87
2018-06-09T21:21:31.397Z,94642.37
2018-06-09T21:24:00.976Z,94642.63
2018-06-09T21:26:35.781Z,94639.09
2018-06-09T21:29:17.527Z,94640.63
2018-06-09T21:31:47.229Z,94641.16
2018-06-09T21:34:34.389Z,93995.11
2018-06-09T21:37:09.142Z,94641.41
2018-06-09T21:39:43.933Z,94634.95
2018-06-09T21:42:18.513Z,94634.45
2018-06-09T21:44:48.470Z,94632.91
2018-06-09T21:47:18.272Z,94626.02
2018-06-09T21:49:47.890Z,94628.28
2018-06-09T21:52:17.473Z,94622.61
2018-06-09T21:54:47.107Z,94621.89
2018-06-09T21:57:16.755Z,94619.63
2018-06-09T21:59:46.496Z,94621.25
2018-06-09T22:02:16.334Z,94617.30
2018-06-09T22:04:46.013Z,94624.83
2018-06-09T22:07:15.747Z,94624.69
2018-06-09T22:09:45.322Z,94621.70
2018-06-09T22:12:14.901Z,94626.59
2018-06-09T22:14:44.608Z,94625.07
2018-06-09T22:17:14.183Z,94626.41
2018-06-09T22:19:43.866Z,94630.55
2018-06-09T22:22:13.927Z,94621.91
2018-06-09T22:24:43.504Z,94617.16
2018-06-09T22:27:13.215Z,94615.22
2018-06-09T22:29:42.875Z,94608.13
2018-06-09T22:32:12.510Z,94606.02
2018-06-09T22:34:42.108Z,94602.19
2018-06-09T22:37:11.816Z,94610.78
2018-06-09T22:39:41.403Z,94617.28
2018-06-09T22:42:10.936Z,94612.05
2018-06-09T22:44:40.653Z,94609.27
2018-06-09T22:47:10.268Z,94609.20
2018-06-09T22:49:39.810Z,94607.22
2018-06-09T22:52:09.385Z,94611.47
2018-06-09T22:54:39.064Z,94607.84
2018-06-09T22:57:08.797Z,94610.14
2018-06-09T22:59:38.399Z,94606.14
2018-06-09T23:02:07.938Z,94608.84
2018-06-09T23:04:37.544Z,94612.10
2018-06-09T23:07:07.186Z,94610.28
2018-06-09T23:09:36.908Z,94612.05
2018-06-09T23:12:06.507Z,94609.76
2018-06-09T23:14:36.224Z,94606.50
2018-06-09T23:17:05.736Z,94607.52
2018-06-09T23:19:35.365Z,94605.88
2018-06-09T23:22:04.948Z,94607.26
2018-06-09T23:24:34.913Z,94607.20
2018-06-09T23:27:04.548Z,94607.34
2018-06-09T23:29:34.052Z,94606.05
2018-06-09T23:32:04.152Z,94604.94
2018-06-09T23:34:47.847Z,94601.28
2018-06-09T23:37:17.623Z,94609.91
2018-06-09T23:39:47.280Z,94604.37
2018-06-09T23:42:17.935Z,94595.08
2018-06-09T23:44:48.227Z,94599.56
2018-06-09T23:47:17.795Z,94597.28
2018-06-09T23:49:47.660Z,94589.13
2018-06-09T23:52:17.296Z,94590.84
2018-06-09T23:54:46.923Z,94583.66
2018-06-09T23:57:16.567Z,94583.56
2018-06-09T23:59:46.063Z,94582.37
